Time;durP1;ratioP1;P1;durP2;ratioP2;P2;SDS_P1;SDS_P2;PMS_P1;PMS_P2;Temp;Humidity;BMP_temperature;BMP_pressure;BME280_temperature;BME280_humidity;BME280_pressure;Samples;Min_cycle;Max_cycle;Signal;HPM_P1;HPM_P2
2023/11/21 00:02:17;;;;;;;106.13;16.45;;;;;;;10.51;80.06;99211.06;5011588;28;20145;-79
2023/11/21 00:04:44;;;;;;;124.00;16.05;;;;;;;10.52;80.19;99215.41;4994142;28;20502;-76
2023/11/21 00:07:10;;;;;;;76.50;14.73;;;;;;;10.53;80.20;99224.13;4993988;28;20509;-75
2023/11/21 00:09:37;;;;;;;135.45;15.30;;;;;;;10.53;80.14;99225.00;5011370;28;20050;-78
2023/11/21 00:12:04;;;;;;;114.75;16.40;;;;;;;10.54;80.22;99217.91;5003606;28;20077;-78
2023/11/21 00:14:31;;;;;;;84.25;15.85;;;;;;;10.55;80.22;99233.63;4994195;28;20046;-76
2023/11/21 00:16:59;;;;;;;124.20;17.42;;;;;;;10.56;80.23;99237.09;5011572;28;20052;-76
2023/11/21 00:19:25;;;;;;;61.08;15.60;;;;;;;10.58;79.88;99231.75;4993794;28;20517;-77
2023/11/21 00:21:52;;;;;;;98.88;17.38;;;;;;;10.58;80.30;99235.19;4986391;28;20046;-76
2023/11/21 00:24:18;;;;;;;111.55;17.77;;;;;;;10.59;80.20;99231.66;5010932;28;20050;-81
2023/11/21 00:26:46;;;;;;;114.22;18.02;;;;;;;10.59;80.48;99234.28;4993849;28;20081;-79
2023/11/21 00:29:12;;;;;;;89.50;17.35;;;;;;;10.61;80.35;99236.81;4993680;28;20503;-75
2023/11/21 00:31:39;;;;;;;112.88;18.52;;;;;;;10.63;80.40;99237.53;5011191;28;20131;-76
2023/11/21 00:34:05;;;;;;;121.57;20.15;;;;;;;10.64;80.42;99236.59;5010978;28;20073;-78
2023/11/21 00:36:32;;;;;;;106.93;19.23;;;;;;;10.65;80.42;99240.94;5010954;28;20129;-79
2023/11/21 00:38:59;;;;;;;95.63;18.13;;;;;;;10.67;80.45;99241.66;5010918;28;20081;-75
2023/11/21 00:41:28;;;;;;;91.35;17.88;;;;;;;10.68;80.33;99243.34;5010967;28;20525;-76
2023/11/21 00:43:55;;;;;;;76.10;15.52;;;;;;;10.69;80.15;99248.50;5011024;28;20442;-76
2023/11/21 00:46:21;;;;;;;138.95;18.15;;;;;;;10.69;79.95;99245.88;5003022;28;20042;-75
2023/11/21 00:48:48;;;;;;;70.93;15.60;;;;;;;10.69;79.84;99243.25;5011007;28;20052;-79
2023/11/21 00:51:14;;;;;;;74.93;15.05;;;;;;;10.69;79.95;99256.41;5003064;28;20065;-77
2023/11/21 00:53:41;;;;;;;94.70;15.70;;;;;;;10.68;80.00;99251.25;5010948;28;20062;-76
2023/11/21 00:56:08;;;;;;;51.97;13.50;;;;;;;10.69;79.91;99245.03;5002858;28;20058;-75
2023/11/21 00:58:35;;;;;;;56.53;15.07;;;;;;;10.69;79.81;99258.19;5010917;28;20054;-77
2023/11/21 01:01:03;;;;;;;141.38;18.35;;;;;;;10.68;79.63;99259.13;5010552;28;20056;-77
2023/11/21 01:03:30;;;;;;;69.63;14.07;;;;;;;10.67;79.72;99254.81;5010483;28;20050;-75
2023/11/21 01:05:56;;;;;;;92.40;14.82;;;;;;;10.67;79.53;99254.81;5010673;28;20054;-76
2023/11/21 01:08:24;;;;;;;63.90;14.70;;;;;;;10.66;79.67;99255.78;5010799;28;20045;-79
2023/11/21 01:10:50;;;;;;;80.20;14.55;;;;;;;10.65;79.64;99262.00;5010564;28;20050;-77
2023/11/21 01:13:18;;;;;;;51.53;13.32;;;;;;;10.64;79.57;99266.41;5010332;28;20070;-76
2023/11/21 01:15:44;;;;;;;91.88;15.68;;;;;;;10.63;79.42;99263.88;4993373;28;20093;-75
2023/11/21 01:18:11;;;;;;;86.15;13.63;;;;;;;10.62;79.32;99272.72;5010427;28;20490;-77
2023/11/21 01:20:38;;;;;;;183.65;17.40;;;;;;;10.61;79.33;99260.50;5010728;28;20053;-79
2023/11/21 01:23:04;;;;;;;96.55;14.77;;;;;;;10.58;79.29;99269.41;5010468;28;20053;-75
2023/11/21 01:25:31;;;;;;;154.82;15.35;;;;;;;10.58;79.57;99271.22;5010846;28;20046;-76
2023/11/21 01:27:57;;;;;;;81.03;14.32;;;;;;;10.56;79.62;99271.31;5010709;28;20058;-78
2023/11/21 01:30:25;;;;;;;141.27;15.85;;;;;;;10.55;79.66;99275.72;5010286;28;20053;-76
2023/11/21 01:32:52;;;;;;;184.75;18.10;;;;;;;10.55;79.79;99280.97;5010149;28;20050;-76
2023/11/21 01:35:19;;;;;;;176.05;18.85;;;;;;;10.55;79.98;99286.25;5010944;28;20050;-76
2023/11/21 01:37:45;;;;;;;278.60;18.73;;;;;;;10.55;79.68;99283.63;5010275;28;20465;-76
2023/11/21 01:40:13;;;;;;;196.48;17.35;;;;;;;10.55;79.24;99295.94;4985142;28;20046;-76
2023/11/21 01:42:43;;;;;;;215.75;16.48;;;;;;;10.53;79.19;99300.44;4992918;28;20406;-76
2023/11/21 01:45:12;;;;;;;115.50;14.30;;;;;;;10.49;79.21;99297.19;5010221;28;20140;-77
2023/11/21 01:47:41;;;;;;;148.68;14.90;;;;;;;10.47;79.23;99292.97;5011986;28;20259;-77
2023/11/21 01:50:12;;;;;;;154.30;14.48;;;;;;;10.45;79.32;99297.47;5014218;28;20050;-77
2023/11/21 01:52:39;;;;;;;106.40;14.52;;;;;;;10.43;79.31;99292.25;5014338;28;20046;-77
2023/11/21 01:55:08;;;;;;;115.30;13.88;;;;;;;10.40;79.27;99297.75;5014226;28;20048;-77
2023/11/21 01:57:39;;;;;;;133.00;14.18;;;;;;;10.38;79.32;99304.88;4996532;28;20100;-77
2023/11/21 02:00:15;;;;;;;71.00;13.43;;;;;;;10.36;79.52;99307.59;5014405;28;20123;-76
2023/11/21 02:02:46;;;;;;;60.42;12.63;;;;;;;10.33;79.07;99302.56;4996518;28;20057;-76
2023/11/21 02:05:18;;;;;;;153.25;16.13;;;;;;;10.34;79.49;99308.66;5013805;28;20046;-77
2023/11/21 02:07:47;;;;;;;84.35;13.50;;;;;;;10.35;79.71;99312.97;5013804;28;20053;-76
2023/11/21 02:10:15;;;;;;;78.78;12.48;;;;;;;10.36;79.95;99314.66;4988231;28;20061;-78
2023/11/21 02:12:42;;;;;;;62.90;13.15;;;;;;;10.36;79.91;99309.41;5013835;28;20050;-76
2023/11/21 02:15:14;;;;;;;86.85;14.05;;;;;;;10.37;79.63;99316.34;4996254;28;20133;-74
2023/11/21 02:17:46;;;;;;;105.85;13.15;;;;;;;10.36;79.66;99314.66;5013915;28;20056;-76
2023/11/21 02:20:17;;;;;;;87.78;12.93;;;;;;;10.35;79.44;99310.34;5013615;28;20541;-76
2023/11/21 02:22:59;;;;;;;161.05;14.63;;;;;;;10.31;78.94;99314.94;4995484;28;20052;-76
2023/11/21 02:25:30;;;;;;;128.20;15.07;;;;;;;10.31;79.36;99314.94;5013774;28;20991;-75
2023/11/21 02:27:58;;;;;;;74.32;12.68;;;;;;;10.28;79.33;99320.41;4995968;28;20108;-77
2023/11/21 02:30:27;;;;;;;55.08;12.90;;;;;;;10.27;79.87;99322.19;4995894;28;20107;-78
2023/11/21 02:32:54;;;;;;;89.55;13.50;;;;;;;10.26;80.15;99322.28;5013398;28;20092;-74
2023/11/21 02:35:21;;;;;;;108.97;14.82;;;;;;;10.27;80.21;99323.97;5013282;28;20054;-76
2023/11/21 02:37:48;;;;;;;114.80;13.85;;;;;;;10.28;80.17;99323.06;5013551;28;20046;-76
2023/11/21 02:40:20;;;;;;;75.97;14.90;;;;;;;10.29;80.04;99322.09;5013504;28;20054;-77
2023/11/21 02:42:47;;;;;;;78.75;13.32;;;;;;;10.29;79.73;99328.19;5013220;28;20078;-76
2023/11/21 02:45:16;;;;;;;59.33;12.73;;;;;;;10.29;79.75;99337.88;5013188;28;20050;-75
2023/11/21 02:47:44;;;;;;;118.32;14.18;;;;;;;10.28;79.99;99337.03;5013114;28;20042;-76
2023/11/21 02:50:12;;;;;;;69.95;12.95;;;;;;;10.29;79.83;99333.44;4995585;28;20522;-75
2023/11/21 02:52:39;;;;;;;65.50;13.38;;;;;;;10.30;80.08;99334.31;5012952;28;20125;-77
2023/11/21 02:55:09;;;;;;;102.35;14.02;;;;;;;10.29;80.14;99336.09;5013234;28;20136;-75
2023/11/21 02:57:36;;;;;;;99.18;13.48;;;;;;;10.29;80.06;99325.56;5012978;28;20045;-78
2023/11/21 03:00:03;;;;;;;91.88;13.02;;;;;;;10.29;79.92;99330.81;5005205;28;20713;-76
2023/11/21 03:02:29;;;;;;;76.35;12.65;;;;;;;10.28;79.82;99331.78;4994858;28;20096;-76
2023/11/21 03:04:56;;;;;;;103.45;16.00;;;;;;;10.29;79.92;99338.72;5006590;28;20057;-76
2023/11/21 03:07:23;;;;;;;109.35;14.18;;;;;;;10.28;80.02;99331.78;4994105;28;20058;-78
2023/11/21 03:09:50;;;;;;;75.97;13.50;;;;;;;10.29;80.11;99338.72;4995203;28;20046;-75
2023/11/21 03:12:17;;;;;;;73.10;13.82;;;;;;;10.29;80.20;99332.63;5012387;28;20061;-74
2023/11/21 03:14:43;;;;;;;114.65;13.50;;;;;;;10.30;80.30;99337.78;4995256;28;20410;-80
2023/11/21 03:17:10;;;;;;;118.38;14.75;;;;;;;10.32;80.20;99339.47;4994991;28;20061;-76
2023/11/21 03:19:36;;;;;;;112.18;14.80;;;;;;;10.33;80.20;99338.53;5012674;28;20053;-75
2023/11/21 03:22:04;;;;;;;82.78;12.60;;;;;;;10.34;80.04;99348.97;4994679;28;20056;-76
2023/11/21 03:24:30;;;;;;;73.00;12.40;;;;;;;10.34;80.25;99345.47;4995056;28;20081;-76
2023/11/21 03:26:57;;;;;;;103.47;13.82;;;;;;;10.34;80.07;99351.59;5012341;28;20052;-75
2023/11/21 03:29:23;;;;;;;111.80;13.73;;;;;;;10.33;80.09;99352.53;4994738;28;20081;-77
2023/11/21 03:31:51;;;;;;;93.45;13.20;;;;;;;10.34;79.69;99348.97;5012233;28;20123;-77
2023/11/21 03:34:27;;;;;;;147.55;13.90;;;;;;;10.30;79.18;99356.22;5011934;28;20072;-74
2023/11/21 03:36:54;;;;;;;75.20;12.70;;;;;;;10.33;79.85;99356.94;5012197;28;20034;-79
2023/11/21 03:39:22;;;;;;;129.35;13.52;;;;;;;10.32;79.87;99353.47;4994492;28;20108;-76
2023/11/21 03:41:49;;;;;;;112.03;14.00;;;;;;;10.32;79.83;99360.53;5012072;28;20480;-77
2023/11/21 03:44:15;;;;;;;95.35;16.67;;;;;;;10.30;79.84;99358.84;5011786;28;20088;-79
2023/11/21 03:46:42;;;;;;;150.73;16.65;;;;;;;10.30;80.01;99366.72;5012007;28;20077;-76
2023/11/21 03:49:08;;;;;;;116.25;14.48;;;;;;;10.30;80.07;99377.25;5012150;28;20476;-75
2023/11/21 03:51:35;;;;;;;90.97;13.35;;;;;;;10.31;80.04;99378.09;4994353;28;20050;-75
2023/11/21 03:54:01;;;;;;;98.03;13.85;;;;;;;10.30;80.21;99377.25;4994358;28;20388;-78
2023/11/21 03:56:28;;;;;;;82.90;12.07;;;;;;;10.32;80.12;99384.19;5011840;28;20129;-74
2023/11/21 03:58:54;;;;;;;63.13;12.00;;;;;;;10.33;80.16;99391.16;5011765;28;20585;-75
2023/11/21 04:01:22;;;;;;;81.20;12.15;;;;;;;10.33;80.15;99389.38;5011625;28;20081;-76
2023/11/21 04:03:50;;;;;;;68.55;12.27;;;;;;;10.35;80.04;99392.75;5011672;28;20096;-74
2023/11/21 04:06:17;;;;;;;103.97;12.98;;;;;;;10.35;80.02;99392.75;4994439;28;20057;-79
2023/11/21 04:08:45;;;;;;;69.93;13.65;;;;;;;10.35;80.04;99392.75;4994109;28;20099;-74
2023/11/21 04:11:12;;;;;;;112.97;14.48;;;;;;;10.36;80.01;99399.69;5011129;28;20132;-79
2023/11/21 04:13:40;;;;;;;69.35;11.88;;;;;;;10.37;80.24;99395.28;5011570;28;20080;-75
2023/11/21 04:16:08;;;;;;;41.70;11.75;;;;;;;10.37;80.11;99404.03;5011577;28;20076;-77
2023/11/21 04:18:38;;;;;;;81.55;13.50;;;;;;;10.37;79.71;99397.91;5011291;28;20088;-75
2023/11/21 04:21:06;;;;;;;88.53;13.30;;;;;;;10.40;80.05;99405.63;5011480;28;20042;-75
2023/11/21 04:23:32;;;;;;;53.10;12.73;;;;;;;10.42;80.45;99403.72;5011235;28;20108;-76
2023/11/21 04:25:59;;;;;;;90.35;13.48;;;;;;;10.42;80.08;99407.22;5011623;28;20050;-77
2023/11/21 04:28:26;;;;;;;78.70;14.27;;;;;;;10.45;80.11;99414.09;5011392;28;20050;-75
2023/11/21 04:30:53;;;;;;;116.82;14.80;;;;;;;10.45;80.23;99416.72;5011381;28;20053;-76
2023/11/21 04:33:21;;;;;;;129.10;15.93;;;;;;;10.46;80.06;99420.22;5010819;28;20060;-76
2023/11/21 04:35:48;;;;;;;92.80;14.77;;;;;;;10.46;79.83;99414.97;5011284;28;20046;-76
2023/11/21 04:38:14;;;;;;;81.80;13.05;;;;;;;10.47;79.96;99414.00;4993674;28;20045;-78
2023/11/21 04:40:41;;;;;;;104.65;12.30;;;;;;;10.47;79.75;99414.84;5011345;28;20120;-75
2023/11/21 04:43:08;;;;;;;69.40;12.35;;;;;;;10.48;79.94;99415.69;5011064;28;20096;-76
2023/11/21 04:45:34;;;;;;;30.23;9.70;;;;;;;10.48;79.85;99421.81;4993806;28;20070;-76
2023/11/21 04:48:01;;;;;;;56.60;11.52;;;;;;;10.47;79.76;99425.38;5011201;28;20050;-77
2023/11/21 04:50:28;;;;;;;55.72;12.50;;;;;;;10.50;79.94;99426.97;5011017;28;20057;-79
2023/11/21 04:52:54;;;;;;;45.60;11.55;;;;;;;10.50;79.69;99424.34;4993372;28;20565;-77
2023/11/21 04:55:21;;;;;;;67.85;11.85;;;;;;;10.49;79.68;99420.88;4993753;28;20060;-75
2023/11/21 04:57:47;;;;;;;55.78;11.75;;;;;;;10.50;79.66;99430.44;5011069;28;20068;-77
2023/11/21 05:00:15;;;;;;;43.15;11.85;;;;;;;10.50;79.63;99432.25;5010952;28;20133;-78
2023/11/21 05:02:44;;;;;;;49.50;11.50;;;;;;;10.52;79.70;99433.84;5010662;28;20046;-76
2023/11/21 05:05:11;;;;;;;58.85;11.48;;;;;;;10.52;79.78;99433.84;5011007;28;20103;-76
2023/11/21 05:07:39;;;;;;;48.42;10.60;;;;;;;10.54;79.51;99436.34;5002989;28;20061;-75
2023/11/21 05:10:10;;;;;;;61.42;11.30;;;;;;;10.55;79.66;99433.63;4993608;28;20053;-76
2023/11/21 05:12:38;;;;;;;91.32;13.63;;;;;;;10.55;79.69;99438.06;4993270;28;20423;-75
2023/11/21 05:15:12;;;;;;;53.50;10.55;;;;;;;10.55;79.33;99431.00;5010925;28;20060;-77
2023/11/21 05:17:42;;;;;;;38.85;10.93;;;;;;;10.56;79.53;99434.50;5010630;28;20050;-77
2023/11/21 05:20:14;;;;;;;109.00;11.25;;;;;;;10.54;78.98;99437.22;5010721;28;20123;-76
2023/11/21 05:22:41;;;;;;;41.92;10.68;;;;;;;10.55;79.39;99441.53;5012192;28;20140;-78
2023/11/21 05:25:09;;;;;;;36.20;10.13;;;;;;;10.54;79.12;99453.00;5014683;28;20076;-75
2023/11/21 05:27:36;;;;;;;63.13;10.40;;;;;;;10.53;79.30;99440.78;5014474;28;20152;-79
2023/11/21 05:30:06;;;;;;;58.63;11.43;;;;;;;10.52;79.26;99451.41;5014756;28;20053;-76
2023/11/21 05:32:34;;;;;;;70.13;11.45;;;;;;;10.53;79.08;99460.97;5014279;28;20053;-75
2023/11/21 05:35:01;;;;;;;37.50;10.07;;;;;;;10.52;79.32;99467.19;5014708;28;20093;-78
2023/11/21 05:37:27;;;;;;;54.42;11.73;;;;;;;10.52;79.31;99467.19;4997129;28;20550;-76
2023/11/21 05:39:56;;;;;;;85.65;12.18;;;;;;;10.52;79.51;99469.81;5014614;28;20084;-76
2023/11/21 05:42:23;;;;;;;56.75;12.02;;;;;;;10.53;79.38;99475.00;5013972;28;20046;-75
2023/11/21 05:44:50;;;;;;;59.15;12.32;;;;;;;10.55;79.40;99480.19;5006654;28;20074;-74
2023/11/21 05:47:17;;;;;;;42.63;10.35;;;;;;;10.55;79.47;99480.19;5006461;28;20054;-75
2023/11/21 05:49:46;;;;;;;24.60;9.95;;;;;;;10.57;79.40;99487.97;5014224;28;20050;-78
2023/11/21 05:52:12;;;;;;;30.65;8.77;;;;;;;10.57;79.49;99488.81;4996437;28;20054;-76
2023/11/21 05:54:39;;;;;;;39.30;10.75;;;;;;;10.58;79.56;99490.50;4996629;28;20054;-77
2023/11/21 05:57:05;;;;;;;51.63;12.00;;;;;;;10.59;79.40;99492.22;4996541;28;20461;-76
2023/11/21 05:59:32;;;;;;;26.95;10.05;;;;;;;10.60;79.72;99496.53;5013878;28;20054;-77
2023/11/21 06:01:59;;;;;;;66.32;11.85;;;;;;;10.62;79.48;99497.25;5009403;28;20491;-77
2023/11/21 06:04:25;;;;;;;43.60;10.75;;;;;;;10.64;79.33;99510.34;5010705;28;20053;-74
2023/11/21 06:06:52;;;;;;;64.85;11.85;;;;;;;10.64;79.33;99511.19;5006161;28;20054;-77
2023/11/21 06:09:20;;;;;;;38.20;11.25;;;;;;;10.64;79.03;99512.97;5005943;28;20491;-76
2023/11/21 06:11:47;;;;;;;39.88;10.68;;;;;;;10.66;79.36;99513.72;4988420;28;20068;-76
2023/11/21 06:14:15;;;;;;;50.72;11.88;;;;;;;10.65;79.25;99519.94;4989990;28;20050;-77
2023/11/21 06:16:41;;;;;;;59.67;12.30;;;;;;;10.67;79.48;99531.22;5012547;28;20050;-75
2023/11/21 06:19:08;;;;;;;97.05;13.98;;;;;;;10.67;79.24;99528.59;5013804;28;20053;-78
2023/11/21 06:21:35;;;;;;;68.93;12.68;;;;;;;10.67;79.17;99536.47;5013517;28;20054;-78
2023/11/21 06:24:01;;;;;;;66.38;12.93;;;;;;;10.67;79.28;99544.38;5013584;28;20050;-76
2023/11/21 06:26:28;;;;;;;85.07;12.70;;;;;;;10.66;79.40;99545.31;5013359;28;20060;-75
2023/11/21 06:28:55;;;;;;;77.93;13.77;;;;;;;10.67;79.50;99545.22;5013832;28;20857;-77
2023/11/21 06:31:22;;;;;;;42.05;12.90;;;;;;;10.69;79.45;99560.91;5013385;28;20046;-76
2023/11/21 06:33:51;;;;;;;66.00;13.50;;;;;;;10.69;79.61;99569.66;4995496;28;20057;-77
2023/11/21 06:36:18;;;;;;;65.43;13.43;;;;;;;10.70;79.60;99567.88;5013551;28;20049;-75
2023/11/21 06:38:45;;;;;;;43.38;12.30;;;;;;;10.72;79.65;99570.44;5013276;28;20137;-76
2023/11/21 06:41:15;;;;;;;48.92;12.60;;;;;;;10.74;79.71;99573.81;5013510;28;20137;-77
2023/11/21 06:43:46;;;;;;;54.55;12.23;;;;;;;10.76;79.67;99571.94;5012694;28;20050;-77
2023/11/21 06:46:15;;;;;;;38.38;11.82;;;;;;;10.78;79.48;99580.56;5012874;28;20054;-78
2023/11/21 06:48:43;;;;;;;43.30;10.68;;;;;;;10.78;79.39;99585.84;5005202;28;20445;-78
2023/11/21 06:51:09;;;;;;;37.80;10.10;;;;;;;10.79;79.56;99591.03;4995327;28;20081;-76
2023/11/21 06:53:37;;;;;;;24.02;10.57;;;;;;;10.80;79.49;99590.06;5012768;28;20578;-77
2023/11/21 06:56:15;;;;;;;35.00;10.88;;;;;;;10.82;79.62;99593.47;5013157;28;20058;-79
2023/11/21 06:58:41;;;;;;;26.88;11.20;;;;;;;10.84;79.60;99606.53;5004594;28;20125;-78
2023/11/21 07:01:08;;;;;;;24.65;10.45;;;;;;;10.85;79.52;99602.97;5012445;28;20146;-76
2023/11/21 07:03:37;;;;;;;43.67;10.73;;;;;;;10.87;79.67;99605.50;5011946;28;20593;-76
2023/11/21 07:06:05;;;;;;;17.90;10.30;;;;;;;10.88;79.34;99609.84;5012385;28;20046;-76
2023/11/21 07:08:32;;;;;;;32.58;9.80;;;;;;;10.88;79.51;99612.47;5012446;28;20081;-77
2023/11/21 07:10:58;;;;;;;15.40;9.50;;;;;;;10.89;79.36;99622.91;5012201;28;20533;-77
2023/11/21 07:13:25;;;;;;;11.05;8.23;;;;;;;10.91;79.27;99625.44;4994608;28;20072;-76
2023/11/21 07:15:52;;;;;;;13.00;8.30;;;;;;;10.91;79.47;99623.66;5012793;28;20085;-76
2023/11/21 07:18:19;;;;;;;11.10;7.18;;;;;;;10.91;79.26;99628.91;5012711;28;20054;-76
2023/11/21 07:20:46;;;;;;;13.73;8.10;;;;;;;10.93;79.19;99634.09;5012568;28;20050;-76
2023/11/21 07:23:15;;;;;;;20.75;8.60;;;;;;;10.93;79.18;99640.22;5012365;28;20058;-80
2023/11/21 07:25:43;;;;;;;11.73;8.30;;;;;;;10.93;79.24;99640.22;4995147;28;20088;-77
2023/11/21 07:28:10;;;;;;;11.57;7.70;;;;;;;10.93;79.14;99634.09;5012088;28;20052;-77
2023/11/21 07:30:37;;;;;;;9.07;5.75;;;;;;;10.94;79.02;99641.06;5012484;28;20077;-76
2023/11/21 07:33:04;;;;;;;8.20;5.85;;;;;;;10.93;79.11;99649.91;5011953;28;20124;-77
2023/11/21 07:35:30;;;;;;;7.03;5.30;;;;;;;10.93;79.39;99647.25;5012557;28;20112;-75
2023/11/21 07:37:57;;;;;;;7.13;5.18;;;;;;;10.94;79.37;99651.59;5012315;28;20057;-76
2023/11/21 07:40:24;;;;;;;7.63;4.85;;;;;;;10.95;79.62;99645.38;5012350;28;20057;-77
2023/11/21 07:42:50;;;;;;;6.88;5.03;;;;;;;10.98;79.58;99654.91;4994440;28;20049;-76
2023/11/21 07:45:17;;;;;;;8.48;5.07;;;;;;;10.99;79.76;99652.16;5011332;28;20510;-76
2023/11/21 07:47:44;;;;;;;5.90;4.47;;;;;;;11.01;79.57;99663.47;4994422;28;20081;-75
2023/11/21 07:50:10;;;;;;;5.80;4.57;;;;;;;11.04;79.60;99654.53;5012216;28;20053;-76
2023/11/21 07:52:37;;;;;;;6.07;4.75;;;;;;;11.07;79.74;99667.50;5011743;28;20053;-76
2023/11/21 07:55:04;;;;;;;7.90;4.93;;;;;;;11.07;79.59;99670.16;5011894;28;20088;-77
2023/11/21 07:57:30;;;;;;;6.95;4.78;;;;;;;11.10;79.52;99674.38;5011423;28;20100;-77
2023/11/21 07:59:57;;;;;;;7.85;5.22;;;;;;;11.12;79.62;99672.47;4994105;28;20096;-77
2023/11/21 08:02:26;;;;;;;8.23;5.72;;;;;;;11.14;79.54;99678.53;5011437;28;20081;-76
2023/11/21 08:04:53;;;;;;;10.95;7.22;;;;;;;11.17;79.77;99680.94;5011559;28;20116;-78
2023/11/21 08:07:19;;;;;;;9.63;6.80;;;;;;;11.20;79.65;99691.31;4994474;28;20058;-77
2023/11/21 08:09:49;;;;;;;10.73;7.32;;;;;;;11.21;79.72;99691.22;5011539;28;20487;-77
2023/11/21 08:12:20;;;;;;;14.05;8.02;;;;;;;11.24;79.59;99694.59;4994259;28;20054;-77
2023/11/21 08:14:46;;;;;;;15.30;8.27;;;;;;;11.24;79.62;99700.72;4994422;28;20493;-77
2023/11/21 08:17:13;;;;;;;15.77;8.13;;;;;;;11.26;79.48;99704.13;5011681;28;20042;-76
2023/11/21 08:19:42;;;;;;;11.70;7.72;;;;;;;11.27;79.38;99715.50;5011609;28;20041;-77
2023/11/21 08:22:09;;;;;;;12.85;8.82;;;;;;;11.27;79.48;99713.72;5011198;28;20049;-75
2023/11/21 08:24:58;;;;;;;;;;;;;;;;;;;;;
2023/11/21 08:27:29;;;;;;;17.92;9.65;;;;;;;11.31;79.11;99735.44;5011818;28;20081;-77
2023/11/21 08:30:05;;;;;;;14.55;8.98;;;;;;;11.30;79.14;99737.25;4986754;28;21601;-76
2023/11/21 08:32:35;;;;;;;28.80;9.40;;;;;;;11.29;78.70;99739.97;5011696;28;20502;-76
2023/11/21 08:35:04;;;;;;;32.60;10.10;;;;;;;11.30;79.13;99747.78;4986056;28;20054;-77
2023/11/21 08:37:33;;;;;;;31.70;12.10;;;;;;;11.30;79.19;99745.16;5004864;28;20054;-79
2023/11/21 08:39:59;;;;;;;74.10;13.07;;;;;;;11.30;79.21;99749.56;4993074;28;20128;-75
2023/11/21 08:42:29;;;;;;;22.10;13.13;;;;;;;11.28;78.72;99746.16;5011342;28;20057;-76
2023/11/21 08:45:09;;;;;;;34.03;13.52;;;;;;;11.26;78.35;99754.19;5011518;28;20065;-76
2023/11/21 08:47:43;;;;;;;86.93;14.90;;;;;;;11.28;78.98;99752.28;4994722;28;20133;-79
2023/11/21 08:50:25;;;;;;;78.25;16.60;;;;;;;11.27;78.57;99760.28;4995155;28;20054;-76
2023/11/21 08:52:52;;;;;;;37.25;15.38;;;;;;;11.28;79.03;99757.56;4986778;28;20050;-79
2023/11/21 08:55:19;;;;;;;39.28;15.10;;;;;;;11.28;79.37;99752.28;5011168;28;20054;-77
2023/11/21 08:57:49;;;;;;;96.55;16.25;;;;;;;11.28;79.45;99769.88;5010719;28;20057;-79
2023/11/21 09:00:17;;;;;;;186.73;18.90;;;;;;;11.28;79.34;99772.53;5011314;28;20527;-77
2023/11/21 09:02:44;;;;;;;32.38;15.05;;;;;;;11.28;79.41;99773.38;4993179;28;20391;-77
2023/11/21 09:05:16;;;;;;;111.85;16.00;;;;;;;11.28;79.44;99777.78;5010818;28;20046;-75
2023/11/21 09:07:43;;;;;;;53.20;12.27;;;;;;;11.28;79.44;99788.31;5011128;28;20045;-78
2023/11/21 09:10:10;;;;;;;229.00;16.10;;;;;;;11.27;79.48;99787.50;4995303;28;20061;-78
2023/11/21 09:12:40;;;;;;;170.60;12.82;;;;;;;11.27;79.35;99794.53;5010747;28;20117;-76
2023/11/21 09:15:09;;;;;;;92.00;11.32;;;;;;;11.27;79.37;99798.03;5010704;28;20042;-75
2023/11/21 09:17:36;;;;;;;123.22;13.07;;;;;;;11.26;79.34;99806.88;5010846;28;20505;-76
2023/11/21 09:20:05;;;;;;;124.55;12.60;;;;;;;11.26;79.46;99795.50;5002774;28;20052;-77
2023/11/21 09:22:32;;;;;;;99.18;11.45;;;;;;;11.25;79.61;99797.25;4992987;28;20096;-77
2023/11/21 09:25:00;;;;;;;127.18;12.43;;;;;;;11.24;79.67;99803.47;5010420;28;20058;-78
2023/11/21 09:27:27;;;;;;;137.13;12.25;;;;;;;11.26;79.67;99811.31;4993088;28;20057;-75
2023/11/21 09:29:54;;;;;;;110.45;11.25;;;;;;;11.27;79.69;99813.84;5010570;28;20053;-77
2023/11/21 09:32:21;;;;;;;129.55;11.35;;;;;;;11.27;79.89;99805.09;4988015;28;20105;-78
2023/11/21 09:34:50;;;;;;;92.82;11.15;;;;;;;11.27;79.85;99819.13;5008159;28;20096;-77
2023/11/21 09:37:17;;;;;;;92.53;10.18;;;;;;;11.28;79.80;99812.91;5010544;28;20082;-76
2023/11/21 09:39:43;;;;;;;172.57;12.00;;;;;;;11.28;79.99;99820.81;5010410;28;20081;-76
2023/11/21 09:42:17;;;;;;;134.38;12.77;;;;;;;11.25;79.38;99831.53;5002176;28;20431;-76
2023/11/21 09:44:53;;;;;;;75.43;10.95;;;;;;;11.26;79.41;99816.56;5010622;28;20049;-77
2023/11/21 09:47:22;;;;;;;113.93;10.90;;;;;;;11.28;79.67;99820.81;4986827;28;20060;-79
2023/11/21 09:49:49;;;;;;;34.47;11.05;;;;;;;11.28;79.82;99831.34;5010634;28;20046;-77
2023/11/21 09:52:25;;;;;;;86.95;11.57;;;;;;;11.27;79.43;99829.66;5010471;28;20140;-78
2023/11/21 09:54:53;;;;;;;180.50;13.48;;;;;;;11.30;80.12;99834.75;5001661;28;20503;-77
2023/11/21 09:57:24;;;;;;;149.60;13.38;;;;;;;11.32;79.98;99834.63;5003405;28;20104;-75
2023/11/21 09:59:56;;;;;;;133.82;13.45;;;;;;;11.30;79.58;99840.03;5010094;28;20053;-77
2023/11/21 10:02:30;;;;;;;32.95;9.63;;;;;;;11.33;79.98;99844.28;4993431;28;20042;-77
2023/11/21 10:04:59;;;;;;;137.95;12.48;;;;;;;11.32;80.04;99848.69;4993313;28;20049;-78
2023/11/21 10:07:31;;;;;;;165.52;13.80;;;;;;;11.32;80.07;99861.84;5010448;28;20124;-78
2023/11/21 10:10:21;;;;;;;258.98;16.55;;;;;;;11.31;79.37;99862.81;5013338;28;20084;-76
2023/11/21 10:13:21;;;;;;;147.85;11.50;;;;;;;11.33;79.32;99860.91;4994939;28;20065;-76
2023/11/21 10:15:52;;;;;;;104.50;11.95;;;;;;;11.37;79.58;99866.88;4996933;28;20042;-76
2023/11/21 10:18:22;;;;;;;68.57;11.02;;;;;;;11.39;79.88;99869.38;5006784;28;20058;-77
2023/11/21 10:20:54;;;;;;;45.40;9.93;;;;;;;11.38;79.61;99872.97;4996833;28;20045;-76
2023/11/21 10:23:22;;;;;;;12.10;8.93;;;;;;;11.38;79.45;99879.09;5013433;28;20540;-76
2023/11/21 10:25:51;;;;;;;14.52;8.00;;;;;;;11.37;79.14;99884.47;5013584;28;20541;-77
2023/11/21 10:28:21;;;;;;;12.85;8.15;;;;;;;11.34;79.46;99883.69;4996960;28;20050;-76
2023/11/21 10:30:48;;;;;;;16.00;9.80;;;;;;;11.32;79.51;99882.94;5014105;28;20052;-78
2023/11/21 10:33:15;;;;;;;13.45;8.32;;;;;;;11.31;79.38;99894.44;5013280;28;20100;-77
2023/11/21 10:35:50;;;;;;;10.77;8.02;;;;;;;11.27;79.12;99892.03;5013932;28;20714;-76
2023/11/21 10:38:23;;;;;;;11.48;7.75;;;;;;;11.30;79.49;99897.16;4994384;28;20058;-79
2023/11/21 10:40:50;;;;;;;11.40;7.93;;;;;;;11.28;79.45;99902.50;5009965;28;20515;-76
2023/11/21 10:43:29;;;;;;;9.77;7.28;;;;;;;11.24;78.70;99903.63;5013495;28;20060;-78
2023/11/21 10:46:02;;;;;;;11.07;8.15;;;;;;;11.28;79.32;99912.19;5013562;28;20494;-76
2023/11/21 10:48:29;;;;;;;38.08;10.13;;;;;;;11.26;79.03;99917.56;5013477;28;20128;-76
2023/11/21 10:50:56;;;;;;;33.88;10.05;;;;;;;11.24;79.05;99914.16;4996390;28;20494;-78
2023/11/21 10:53:23;;;;;;;15.00;10.02;;;;;;;11.23;79.03;99911.59;5001489;28;20050;-78
2023/11/21 10:56:08;;;;;;;11.43;8.25;;;;;;;11.17;78.31;99910.16;5002146;28;20050;-76
2023/11/21 10:58:39;;;;;;;10.70;8.00;;;;;;;11.19;78.81;99924.09;5013243;28;20050;-76
2023/11/21 11:01:14;;;;;;;13.60;9.23;;;;;;;11.14;78.18;99913.81;5012401;28;20075;-76
2023/11/21 11:03:45;;;;;;;22.05;9.88;;;;;;;11.15;78.99;99920.81;5007785;28;20052;-77
2023/11/21 11:06:13;;;;;;;23.42;10.60;;;;;;;11.13;78.87;99919.16;5013108;28;20639;-77
2023/11/21 11:08:40;;;;;;;18.45;10.43;;;;;;;11.10;78.82;99922.00;5012808;28;20045;-77
2023/11/21 11:11:07;;;;;;;43.33;11.10;;;;;;;11.07;78.79;99918.59;5011512;28;20135;-76
2023/11/21 11:13:37;;;;;;;51.15;11.95;;;;;;;11.01;78.59;99924.22;4999036;28;20054;-76
2023/11/21 11:16:17;;;;;;;57.28;13.30;;;;;;;11.00;78.35;99924.31;5004770;28;20050;-76
2023/11/21 11:18:45;;;;;;;52.13;11.32;;;;;;;11.00;79.00;99924.31;5013324;28;20100;-77
2023/11/21 11:21:22;;;;;;;14.32;10.77;;;;;;;10.97;78.83;99929.72;4986586;28;20100;-76
2023/11/21 11:24:30;;;;;;;14.40;10.43;;;;;;;10.92;78.18;99940.53;5012474;28;20045;-76
2023/11/21 11:27:28;;;;;;;14.77;10.45;;;;;;;10.92;78.15;99946.63;4915521;28;20050;-77